sensor_id;sensor_type;location;lat;lon;timestamp;temperature;humidity
23267;DHT22;11802;53.160;8.214;2023-04-06T00:00:48;2.40;99.90
23267;DHT22;11802;53.160;8.214;2023-04-06T00:03:14;2.40;99.90
23267;DHT22;11802;53.160;8.214;2023-04-06T00:05:40;2.30;99.90
23267;DHT22;11802;53.160;8.214;2023-04-06T00:08:05;2.30;99.90
23267;DHT22;11802;53.160;8.214;2023-04-06T00:10:31;2.30;99.90
23267;DHT22;11802;53.160;8.214;2023-04-06T00:12:58;2.20;99.90
23267;DHT22;11802;53.160;8.214;2023-04-06T00:15:24;2.30;99.90
23267;DHT22;11802;53.160;8.214;2023-04-06T00:17:49;2.20;99.90
23267;DHT22;11802;53.160;8.214;2023-04-06T00:20:15;2.30;99.90
23267;DHT22;11802;53.160;8.214;2023-04-06T00:22:41;2.20;99.90
23267;DHT22;11802;53.160;8.214;2023-04-06T00:25:07;2.20;99.90
23267;DHT22;11802;53.160;8.214;2023-04-06T00:27:33;2.10;99.90
23267;DHT22;11802;53.160;8.214;2023-04-06T00:29:58;2.20;99.90
23267;DHT22;11802;53.160;8.214;2023-04-06T00:32:24;2.10;99.90
23267;DHT22;11802;53.160;8.214;2023-04-06T00:34:50;2.10;99.90
23267;DHT22;11802;53.160;8.214;2023-04-06T00:37:15;2.10;99.90
23267;DHT22;11802;53.160;8.214;2023-04-06T00:39:42;2.10;99.90
23267;DHT22;11802;53.160;8.214;2023-04-06T00:42:12;2.00;99.90
23267;DHT22;11802;53.160;8.214;2023-04-06T00:44:39;2.00;99.90
23267;DHT22;11802;53.160;8.214;2023-04-06T00:47:05;2.10;99.90
23267;DHT22;11802;53.160;8.214;2023-04-06T00:49:32;2.10;99.90
23267;DHT22;11802;53.160;8.214;2023-04-06T00:51:57;2.00;99.90
23267;DHT22;11802;53.160;8.214;2023-04-06T00:54:23;2.00;99.90
23267;DHT22;11802;53.160;8.214;2023-04-06T00:56:49;1.90;99.90
23267;DHT22;11802;53.160;8.214;2023-04-06T00:59:14;1.90;99.90
23267;DHT22;11802;53.160;8.214;2023-04-06T01:01:40;1.90;99.90
23267;DHT22;11802;53.160;8.214;2023-04-06T01:04:05;1.80;99.90
23267;DHT22;11802;53.160;8.214;2023-04-06T01:06:31;1.90;99.90
23267;DHT22;11802;53.160;8.214;2023-04-06T01:08:56;1.80;99.90
23267;DHT22;11802;53.160;8.214;2023-04-06T01:11:22;1.80;99.90
23267;DHT22;11802;53.160;8.214;2023-04-06T01:13:48;1.80;99.90
23267;DHT22;11802;53.160;8.214;2023-04-06T01:16:13;1.70;99.90
23267;DHT22;11802;53.160;8.214;2023-04-06T01:18:39;1.70;99.90
23267;DHT22;11802;53.160;8.214;2023-04-06T01:21:05;1.70;99.90
23267;DHT22;11802;53.160;8.214;2023-04-06T01:23:31;1.70;99.90
23267;DHT22;11802;53.160;8.214;2023-04-06T01:25:56;1.80;99.90
23267;DHT22;11802;53.160;8.214;2023-04-06T01:28:22;1.80;99.90
23267;DHT22;11802;53.160;8.214;2023-04-06T01:30:47;1.70;99.90
23267;DHT22;11802;53.160;8.214;2023-04-06T01:33:13;1.70;99.90
23267;DHT22;11802;53.160;8.214;2023-04-06T01:35:39;1.60;99.90
23267;DHT22;11802;53.160;8.214;2023-04-06T01:38:04;1.60;99.90
23267;DHT22;11802;53.160;8.214;2023-04-06T01:40:30;1.60;99.90
23267;DHT22;11802;53.160;8.214;2023-04-06T01:42:56;1.60;99.90
23267;DHT22;11802;53.160;8.214;2023-04-06T01:45:23;1.60;99.90
23267;DHT22;11802;53.160;8.214;2023-04-06T01:47:48;1.60;99.90
23267;DHT22;11802;53.160;8.214;2023-04-06T01:50:14;1.50;99.90
23267;DHT22;11802;53.160;8.214;2023-04-06T01:52:39;1.50;99.90
23267;DHT22;11802;53.160;8.214;2023-04-06T01:55:06;1.50;99.90
23267;DHT22;11802;53.160;8.214;2023-04-06T01:57:31;1.50;99.90
23267;DHT22;11802;53.160;8.214;2023-04-06T01:59:57;1.50;99.90
23267;DHT22;11802;53.160;8.214;2023-04-06T02:02:23;1.50;99.90
23267;DHT22;11802;53.160;8.214;2023-04-06T02:04:48;1.50;99.90
23267;DHT22;11802;53.160;8.214;2023-04-06T02:07:14;1.60;99.90
23267;DHT22;11802;53.160;8.214;2023-04-06T02:09:40;1.60;99.90
23267;DHT22;11802;53.160;8.214;2023-04-06T02:12:06;1.50;99.90
23267;DHT22;11802;53.160;8.214;2023-04-06T02:14:32;1.50;99.90
23267;DHT22;11802;53.160;8.214;2023-04-06T02:16:57;1.50;99.90
23267;DHT22;11802;53.160;8.214;2023-04-06T02:19:23;1.50;99.90
23267;DHT22;11802;53.160;8.214;2023-04-06T02:21:48;1.50;99.90
23267;DHT22;11802;53.160;8.214;2023-04-06T02:24:14;1.40;99.90
23267;DHT22;11802;53.160;8.214;2023-04-06T02:26:39;1.40;99.90
23267;DHT22;11802;53.160;8.214;2023-04-06T02:29:05;1.40;99.90
23267;DHT22;11802;53.160;8.214;2023-04-06T02:31:32;1.40;99.90
23267;DHT22;11802;53.160;8.214;2023-04-06T02:33:58;1.30;99.90
23267;DHT22;11802;53.160;8.214;2023-04-06T02:36:23;1.30;99.90
23267;DHT22;11802;53.160;8.214;2023-04-06T02:38:49;1.30;99.90
23267;DHT22;11802;53.160;8.214;2023-04-06T02:41:14;1.30;99.90
23267;DHT22;11802;53.160;8.214;2023-04-06T02:43:40;1.20;99.90
23267;DHT22;11802;53.160;8.214;2023-04-06T02:46:05;1.20;99.90
23267;DHT22;11802;53.160;8.214;2023-04-06T02:48:31;1.10;99.90
23267;DHT22;11802;53.160;8.214;2023-04-06T02:50:57;1.20;99.90
23267;DHT22;11802;53.160;8.214;2023-04-06T02:53:22;1.10;99.90
23267;DHT22;11802;53.160;8.214;2023-04-06T02:55:48;1.10;99.90
23267;DHT22;11802;53.160;8.214;2023-04-06T02:58:13;1.00;99.90
23267;DHT22;11802;53.160;8.214;2023-04-06T03:00:39;1.10;99.90
23267;DHT22;11802;53.160;8.214;2023-04-06T03:03:05;1.10;99.90
23267;DHT22;11802;53.160;8.214;2023-04-06T03:05:31;1.00;99.90
23267;DHT22;11802;53.160;8.214;2023-04-06T03:07:57;1.00;99.90
23267;DHT22;11802;53.160;8.214;2023-04-06T03:10:22;1.00;99.90
23267;DHT22;11802;53.160;8.214;2023-04-06T03:12:48;1.00;99.90
23267;DHT22;11802;53.160;8.214;2023-04-06T03:15:13;0.90;99.90
23267;DHT22;11802;53.160;8.214;2023-04-06T03:17:39;0.90;99.90
23267;DHT22;11802;53.160;8.214;2023-04-06T03:20:05;0.80;99.90
23267;DHT22;11802;53.160;8.214;2023-04-06T03:22:31;0.80;99.90
23267;DHT22;11802;53.160;8.214;2023-04-06T03:24:56;0.80;99.90
23267;DHT22;11802;53.160;8.214;2023-04-06T03:27:22;0.80;99.90
23267;DHT22;11802;53.160;8.214;2023-04-06T03:29:47;0.80;99.90
23267;DHT22;11802;53.160;8.214;2023-04-06T03:32:13;0.80;99.90
23267;DHT22;11802;53.160;8.214;2023-04-06T03:34:39;0.80;99.90
23267;DHT22;11802;53.160;8.214;2023-04-06T03:37:04;0.80;99.90
23267;DHT22;11802;53.160;8.214;2023-04-06T03:39:30;0.80;99.90
23267;DHT22;11802;53.160;8.214;2023-04-06T03:41:56;0.80;99.90
23267;DHT22;11802;53.160;8.214;2023-04-06T03:44:21;0.80;99.90
23267;DHT22;11802;53.160;8.214;2023-04-06T03:46:47;0.80;99.90
23267;DHT22;11802;53.160;8.214;2023-04-06T03:49:12;0.70;99.90
23267;DHT22;11802;53.160;8.214;2023-04-06T03:51:38;0.70;99.90
23267;DHT22;11802;53.160;8.214;2023-04-06T03:54:03;0.70;99.90
23267;DHT22;11802;53.160;8.214;2023-04-06T03:56:29;0.70;99.90
23267;DHT22;11802;53.160;8.214;2023-04-06T03:58:55;0.70;99.90
23267;DHT22;11802;53.160;8.214;2023-04-06T04:01:20;0.70;99.90
23267;DHT22;11802;53.160;8.214;2023-04-06T04:03:46;0.80;99.90
23267;DHT22;11802;53.160;8.214;2023-04-06T04:06:12;0.70;99.90
23267;DHT22;11802;53.160;8.214;2023-04-06T04:08:37;0.70;99.90
23267;DHT22;11802;53.160;8.214;2023-04-06T04:11:03;0.60;99.90
23267;DHT22;11802;53.160;8.214;2023-04-06T04:13:28;0.70;99.90
23267;DHT22;11802;53.160;8.214;2023-04-06T04:15:54;0.70;99.90
23267;DHT22;11802;53.160;8.214;2023-04-06T04:18:19;0.50;99.90
23267;DHT22;11802;53.160;8.214;2023-04-06T04:20:45;0.50;99.90
23267;DHT22;11802;53.160;8.214;2023-04-06T04:23:11;0.50;99.90
23267;DHT22;11802;53.160;8.214;2023-04-06T04:25:36;0.50;99.90
23267;DHT22;11802;53.160;8.214;2023-04-06T04:28:02;0.50;99.90
23267;DHT22;11802;53.160;8.214;2023-04-06T04:30:28;0.40;99.90
23267;DHT22;11802;53.160;8.214;2023-04-06T04:32:53;0.40;99.90
23267;DHT22;11802;53.160;8.214;2023-04-06T04:35:19;0.40;99.90
23267;DHT22;11802;53.160;8.214;2023-04-06T04:37:45;0.40;99.90
23267;DHT22;11802;53.160;8.214;2023-04-06T04:40:11;0.40;99.90
23267;DHT22;11802;53.160;8.214;2023-04-06T04:42:37;0.40;99.90
23267;DHT22;11802;53.160;8.214;2023-04-06T04:45:02;0.40;99.90
23267;DHT22;11802;53.160;8.214;2023-04-06T04:47:28;0.40;99.90
23267;DHT22;11802;53.160;8.214;2023-04-06T04:49:53;0.40;99.90
23267;DHT22;11802;53.160;8.214;2023-04-06T04:52:19;0.40;99.90
23267;DHT22;11802;53.160;8.214;2023-04-06T04:54:44;0.50;99.90
23267;DHT22;11802;53.160;8.214;2023-04-06T04:57:12;0.50;99.90
23267;DHT22;11802;53.160;8.214;2023-04-06T04:59:37;0.50;99.90
23267;DHT22;11802;53.160;8.214;2023-04-06T05:02:03;0.50;99.90
23267;DHT22;11802;53.160;8.214;2023-04-06T05:04:29;0.60;99.90
23267;DHT22;11802;53.160;8.214;2023-04-06T05:07:05;0.70;99.90
23267;DHT22;11802;53.160;8.214;2023-04-06T05:09:31;0.80;99.90
23267;DHT22;11802;53.160;8.214;2023-04-06T05:11:58;0.90;99.90
23267;DHT22;11802;53.160;8.214;2023-04-06T05:14:24;1.00;99.90
23267;DHT22;11802;53.160;8.214;2023-04-06T05:16:50;1.20;99.90
23267;DHT22;11802;53.160;8.214;2023-04-06T05:19:15;1.50;99.90
23267;DHT22;11802;53.160;8.214;2023-04-06T05:21:41;1.60;99.90
23267;DHT22;11802;53.160;8.214;2023-04-06T05:24:07;1.90;99.90
23267;DHT22;11802;53.160;8.214;2023-04-06T05:26:32;2.10;99.90
23267;DHT22;11802;53.160;8.214;2023-04-06T05:28:58;2.40;99.90
23267;DHT22;11802;53.160;8.214;2023-04-06T05:31:23;2.70;99.90
23267;DHT22;11802;53.160;8.214;2023-04-06T05:33:49;2.70;94.00
23267;DHT22;11802;53.160;8.214;2023-04-06T05:36:15;2.60;8.50
23267;DHT22;11802;53.160;8.214;2023-04-06T05:38:40;2.90;1.00
23267;DHT22;11802;53.160;8.214;2023-04-06T05:41:06;3.20;1.00
23267;DHT22;11802;53.160;8.214;2023-04-06T05:43:31;3.80;1.00
23267;DHT22;11802;53.160;8.214;2023-04-06T05:45:57;4.00;99.90
23267;DHT22;11802;53.160;8.214;2023-04-06T05:48:22;3.90;99.90
23267;DHT22;11802;53.160;8.214;2023-04-06T05:50:51;4.10;99.90
23267;DHT22;11802;53.160;8.214;2023-04-06T05:53:16;4.40;99.90
23267;DHT22;11802;53.160;8.214;2023-04-06T05:55:42;4.40;1.00
23267;DHT22;11802;53.160;8.214;2023-04-06T05:58:08;4.60;1.00
23267;DHT22;11802;53.160;8.214;2023-04-06T06:00:34;4.80;1.00
23267;DHT22;11802;53.160;8.214;2023-04-06T06:02:59;4.90;1.00
23267;DHT22;11802;53.160;8.214;2023-04-06T06:05:25;5.30;1.00
23267;DHT22;11802;53.160;8.214;2023-04-06T06:07:50;5.50;1.00
23267;DHT22;11802;53.160;8.214;2023-04-06T06:10:16;5.40;66.80
23267;DHT22;11802;53.160;8.214;2023-04-06T06:12:41;5.30;26.10
23267;DHT22;11802;53.160;8.214;2023-04-06T06:15:07;5.30;99.90
23267;DHT22;11802;53.160;8.214;2023-04-06T06:17:33;5.60;99.90
23267;DHT22;11802;53.160;8.214;2023-04-06T06:19:58;5.80;99.90
23267;DHT22;11802;53.160;8.214;2023-04-06T06:22:24;6.10;99.90
23267;DHT22;11802;53.160;8.214;2023-04-06T06:24:49;6.60;99.90
23267;DHT22;11802;53.160;8.214;2023-04-06T06:27:15;7.60;1.00
23267;DHT22;11802;53.160;8.214;2023-04-06T06:29:41;8.80;1.00
23267;DHT22;11802;53.160;8.214;2023-04-06T06:32:07;9.40;99.90
23267;DHT22;11802;53.160;8.214;2023-04-06T06:34:34;10.50;1.00
23267;DHT22;11802;53.160;8.214;2023-04-06T06:37:01;10.80;1.00
23267;DHT22;11802;53.160;8.214;2023-04-06T06:39:27;11.40;1.00
23267;DHT22;11802;53.160;8.214;2023-04-06T06:41:53;11.70;1.00
23267;DHT22;11802;53.160;8.214;2023-04-06T06:44:20;12.40;1.00
23267;DHT22;11802;53.160;8.214;2023-04-06T06:46:47;12.90;99.90
23267;DHT22;11802;53.160;8.214;2023-04-06T06:49:12;12.60;99.90
23267;DHT22;11802;53.160;8.214;2023-04-06T06:51:39;13.00;99.90
23267;DHT22;11802;53.160;8.214;2023-04-06T06:54:05;13.50;99.90
23267;DHT22;11802;53.160;8.214;2023-04-06T06:56:30;14.00;99.90
23267;DHT22;11802;53.160;8.214;2023-04-06T06:58:56;14.30;99.90
23267;DHT22;11802;53.160;8.214;2023-04-06T07:01:22;14.70;99.90
23267;DHT22;11802;53.160;8.214;2023-04-06T07:03:47;15.30;99.90
23267;DHT22;11802;53.160;8.214;2023-04-06T07:06:13;14.50;99.90
23267;DHT22;11802;53.160;8.214;2023-04-06T07:08:38;14.30;99.90
23267;DHT22;11802;53.160;8.214;2023-04-06T07:11:04;14.10;99.90
23267;DHT22;11802;53.160;8.214;2023-04-06T07:13:29;14.80;99.90
23267;DHT22;11802;53.160;8.214;2023-04-06T07:15:55;14.20;99.90
23267;DHT22;11802;53.160;8.214;2023-04-06T07:18:22;14.70;99.90
23267;DHT22;11802;53.160;8.214;2023-04-06T07:20:47;14.90;99.90
23267;DHT22;11802;53.160;8.214;2023-04-06T07:23:13;15.30;99.90
23267;DHT22;11802;53.160;8.214;2023-04-06T07:25:38;15.50;99.90
23267;DHT22;11802;53.160;8.214;2023-04-06T07:28:04;15.60;99.90
23267;DHT22;11802;53.160;8.214;2023-04-06T07:30:30;15.70;99.90
23267;DHT22;11802;53.160;8.214;2023-04-06T07:32:56;15.90;99.90
23267;DHT22;11802;53.160;8.214;2023-04-06T07:35:25;15.80;99.90
23267;DHT22;11802;53.160;8.214;2023-04-06T07:37:52;16.10;99.90
23267;DHT22;11802;53.160;8.214;2023-04-06T07:40:18;14.90;99.90
23267;DHT22;11802;53.160;8.214;2023-04-06T07:42:45;15.50;99.90
23267;DHT22;11802;53.160;8.214;2023-04-06T07:45:10;15.80;99.90
23267;DHT22;11802;53.160;8.214;2023-04-06T07:47:36;16.20;99.90
23267;DHT22;11802;53.160;8.214;2023-04-06T07:50:01;16.00;99.90
23267;DHT22;11802;53.160;8.214;2023-04-06T07:52:27;16.00;99.90
23267;DHT22;11802;53.160;8.214;2023-04-06T07:54:53;15.90;99.90
23267;DHT22;11802;53.160;8.214;2023-04-06T07:57:18;16.60;99.90
23267;DHT22;11802;53.160;8.214;2023-04-06T07:59:44;16.90;99.90
23267;DHT22;11802;53.160;8.214;2023-04-06T08:02:09;17.30;99.90
23267;DHT22;11802;53.160;8.214;2023-04-06T08:04:35;17.60;99.90
23267;DHT22;11802;53.160;8.214;2023-04-06T08:07:01;17.40;99.90
23267;DHT22;11802;53.160;8.214;2023-04-06T08:09:27;16.80;99.90
23267;DHT22;11802;53.160;8.214;2023-04-06T08:11:53;17.40;99.90
23267;DHT22;11802;53.160;8.214;2023-04-06T08:14:18;17.50;99.90
23267;DHT22;11802;53.160;8.214;2023-04-06T08:16:44;17.70;99.90
23267;DHT22;11802;53.160;8.214;2023-04-06T08:19:09;17.30;99.90
23267;DHT22;11802;53.160;8.214;2023-04-06T08:21:36;18.00;99.90
23267;DHT22;11802;53.160;8.214;2023-04-06T08:24:02;18.00;99.90
23267;DHT22;11802;53.160;8.214;2023-04-06T08:26:27;17.40;99.90
23267;DHT22;11802;53.160;8.214;2023-04-06T08:28:53;17.60;99.90
23267;DHT22;11802;53.160;8.214;2023-04-06T08:31:19;17.80;99.90
23267;DHT22;11802;53.160;8.214;2023-04-06T08:33:46;17.80;99.90
23267;DHT22;11802;53.160;8.214;2023-04-06T08:36:13;18.10;99.90
23267;DHT22;11802;53.160;8.214;2023-04-06T08:38:40;18.10;99.90
23267;DHT22;11802;53.160;8.214;2023-04-06T08:41:10;18.80;99.90
23267;DHT22;11802;53.160;8.214;2023-04-06T08:44:00;18.70;99.90
23267;DHT22;11802;53.160;8.214;2023-04-06T08:46:28;19.50;99.90
23267;DHT22;11802;53.160;8.214;2023-04-06T08:49:01;19.30;99.90
23267;DHT22;11802;53.160;8.214;2023-04-06T08:51:28;19.00;99.90
23267;DHT22;11802;53.160;8.214;2023-04-06T08:53:55;19.30;99.90
23267;DHT22;11802;53.160;8.214;2023-04-06T08:56:22;19.70;99.90
23267;DHT22;11802;53.160;8.214;2023-04-06T08:58:49;19.70;99.90
23267;DHT22;11802;53.160;8.214;2023-04-06T09:01:17;19.40;99.90
23267;DHT22;11802;53.160;8.214;2023-04-06T09:03:43;19.30;99.90
23267;DHT22;11802;53.160;8.214;2023-04-06T09:06:09;19.60;99.90
23267;DHT22;11802;53.160;8.214;2023-04-06T09:08:40;19.10;99.90
23267;DHT22;11802;53.160;8.214;2023-04-06T09:11:07;18.40;99.90
23267;DHT22;11802;53.160;8.214;2023-04-06T09:13:45;18.60;99.90
23267;DHT22;11802;53.160;8.214;2023-04-06T09:16:11;18.80;99.90
23267;DHT22;11802;53.160;8.214;2023-04-06T09:18:38;19.20;99.90
23267;DHT22;11802;53.160;8.214;2023-04-06T09:21:05;20.00;99.90
23267;DHT22;11802;53.160;8.214;2023-04-06T09:23:31;20.20;99.90
23267;DHT22;11802;53.160;8.214;2023-04-06T09:26:09;19.60;99.90
23267;DHT22;11802;53.160;8.214;2023-04-06T09:28:52;18.70;99.90
23267;DHT22;11802;53.160;8.214;2023-04-06T09:31:29;18.70;99.90
23267;DHT22;11802;53.160;8.214;2023-04-06T09:33:56;18.90;99.90
23267;DHT22;11802;53.160;8.214;2023-04-06T09:36:33;19.00;99.90
23267;DHT22;11802;53.160;8.214;2023-04-06T09:39:01;19.00;99.90
23267;DHT22;11802;53.160;8.214;2023-04-06T09:41:48;19.40;99.90
23267;DHT22;11802;53.160;8.214;2023-04-06T09:44:13;19.60;99.90
23267;DHT22;11802;53.160;8.214;2023-04-06T09:46:43;20.10;99.90
23267;DHT22;11802;53.160;8.214;2023-04-06T09:49:10;20.20;99.90
23267;DHT22;11802;53.160;8.214;2023-04-06T09:52:00;20.20;99.90
23267;DHT22;11802;53.160;8.214;2023-04-06T09:54:29;20.30;99.90
23267;DHT22;11802;53.160;8.214;2023-04-06T09:57:07;20.50;99.90
23267;DHT22;11802;53.160;8.214;2023-04-06T10:02:18;20.50;99.90
23267;DHT22;11802;53.160;8.214;2023-04-06T10:04:56;19.70;99.90
23267;DHT22;11802;53.160;8.214;2023-04-06T10:07:25;19.50;99.90
23267;DHT22;11802;53.160;8.214;2023-04-06T10:09:53;19.70;99.90
23267;DHT22;11802;53.160;8.214;2023-04-06T10:12:19;18.60;99.90
23267;DHT22;11802;53.160;8.214;2023-04-06T10:14:45;18.00;99.90
23267;DHT22;11802;53.160;8.214;2023-04-06T10:17:11;18.10;99.90
23267;DHT22;11802;53.160;8.214;2023-04-06T10:20:02;18.20;99.90
23267;DHT22;11802;53.160;8.214;2023-04-06T10:23:08;17.60;99.90
23267;DHT22;11802;53.160;8.214;2023-04-06T10:25:31;17.20;99.90
23267;DHT22;11802;53.160;8.214;2023-04-06T10:28:08;17.50;99.90
23267;DHT22;11802;53.160;8.214;2023-04-06T10:30:34;17.30;99.90
23267;DHT22;11802;53.160;8.214;2023-04-06T10:33:00;17.50;99.90
23267;DHT22;11802;53.160;8.214;2023-04-06T10:35:37;17.50;99.90
23267;DHT22;11802;53.160;8.214;2023-04-06T10:38:04;17.50;99.90
23267;DHT22;11802;53.160;8.214;2023-04-06T10:40:29;18.10;99.90
23267;DHT22;11802;53.160;8.214;2023-04-06T10:43:13;18.20;99.90
23267;DHT22;11802;53.160;8.214;2023-04-06T10:45:40;18.70;99.90
23267;DHT22;11802;53.160;8.214;2023-04-06T10:48:19;18.90;99.90
23267;DHT22;11802;53.160;8.214;2023-04-06T10:50:49;18.60;99.90
23267;DHT22;11802;53.160;8.214;2023-04-06T10:53:25;18.60;99.90
23267;DHT22;11802;53.160;8.214;2023-04-06T10:55:53;18.80;99.90
23267;DHT22;11802;53.160;8.214;2023-04-06T10:58:19;18.90;99.90
23267;DHT22;11802;53.160;8.214;2023-04-06T11:00:46;19.30;99.90
23267;DHT22;11802;53.160;8.214;2023-04-06T11:03:13;19.10;99.90
23267;DHT22;11802;53.160;8.214;2023-04-06T11:05:42;18.90;98.80
23267;DHT22;11802;53.160;8.214;2023-04-06T11:08:08;18.60;99.40
23267;DHT22;11802;53.160;8.214;2023-04-06T11:10:33;18.50;99.10
23267;DHT22;11802;53.160;8.214;2023-04-06T11:12:59;18.80;99.90
23267;DHT22;11802;53.160;8.214;2023-04-06T11:15:25;18.70;99.90
23267;DHT22;11802;53.160;8.214;2023-04-06T11:17:50;18.60;98.80
23267;DHT22;11802;53.160;8.214;2023-04-06T11:20:16;18.60;99.70
23267;DHT22;11802;53.160;8.214;2023-04-06T11:22:52;18.80;98.10
23267;DHT22;11802;53.160;8.214;2023-04-06T11:25:18;18.90;98.00
23267;DHT22;11802;53.160;8.214;2023-04-06T11:27:45;18.70;98.30
23267;DHT22;11802;53.160;8.214;2023-04-06T11:30:11;18.50;99.20
23267;DHT22;11802;53.160;8.214;2023-04-06T11:32:45;18.60;98.30
23267;DHT22;11802;53.160;8.214;2023-04-06T11:35:21;18.70;95.90
23267;DHT22;11802;53.160;8.214;2023-04-06T11:37:49;18.60;93.50
23267;DHT22;11802;53.160;8.214;2023-04-06T11:40:15;18.20;94.40
23267;DHT22;11802;53.160;8.214;2023-04-06T11:42:41;18.40;94.50
23267;DHT22;11802;53.160;8.214;2023-04-06T11:45:07;18.70;94.50
23267;DHT22;11802;53.160;8.214;2023-04-06T11:47:35;18.50;95.30
23267;DHT22;11802;53.160;8.214;2023-04-06T11:50:13;18.40;94.80
23267;DHT22;11802;53.160;8.214;2023-04-06T11:52:40;17.60;93.40
23267;DHT22;11802;53.160;8.214;2023-04-06T11:55:14;17.60;92.40
23267;DHT22;11802;53.160;8.214;2023-04-06T11:57:40;17.40;93.10
23267;DHT22;11802;53.160;8.214;2023-04-06T12:00:07;17.50;96.10
23267;DHT22;11802;53.160;8.214;2023-04-06T12:02:35;17.60;94.70
23267;DHT22;11802;53.160;8.214;2023-04-06T12:05:01;17.70;95.10
23267;DHT22;11802;53.160;8.214;2023-04-06T12:07:28;17.90;92.90
23267;DHT22;11802;53.160;8.214;2023-04-06T12:09:55;18.00;94.60
23267;DHT22;11802;53.160;8.214;2023-04-06T12:12:20;18.00;93.20
23267;DHT22;11802;53.160;8.214;2023-04-06T12:14:46;17.90;92.60
23267;DHT22;11802;53.160;8.214;2023-04-06T12:17:11;17.80;95.10
23267;DHT22;11802;53.160;8.214;2023-04-06T12:19:37;17.60;96.30
23267;DHT22;11802;53.160;8.214;2023-04-06T12:22:02;17.60;97.60
23267;DHT22;11802;53.160;8.214;2023-04-06T12:24:28;17.30;98.30
23267;DHT22;11802;53.160;8.214;2023-04-06T12:26:54;17.50;99.90
23267;DHT22;11802;53.160;8.214;2023-04-06T12:29:20;17.30;99.90
23267;DHT22;11802;53.160;8.214;2023-04-06T12:31:45;17.30;98.70
23267;DHT22;11802;53.160;8.214;2023-04-06T12:34:12;17.20;99.90
23267;DHT22;11802;53.160;8.214;2023-04-06T12:36:37;16.90;99.10
23267;DHT22;11802;53.160;8.214;2023-04-06T12:39:04;17.20;99.40
23267;DHT22;11802;53.160;8.214;2023-04-06T12:41:30;17.00;96.80
23267;DHT22;11802;53.160;8.214;2023-04-06T12:43:56;17.10;98.50
23267;DHT22;11802;53.160;8.214;2023-04-06T12:46:22;17.00;99.90
23267;DHT22;11802;53.160;8.214;2023-04-06T12:48:48;17.00;99.90
23267;DHT22;11802;53.160;8.214;2023-04-06T12:51:14;16.80;99.30
23267;DHT22;11802;53.160;8.214;2023-04-06T12:53:40;16.60;99.90
23267;DHT22;11802;53.160;8.214;2023-04-06T12:56:16;16.80;99.90
23267;DHT22;11802;53.160;8.214;2023-04-06T12:58:43;16.70;99.90
23267;DHT22;11802;53.160;8.214;2023-04-06T13:01:09;16.70;99.90
23267;DHT22;11802;53.160;8.214;2023-04-06T13:03:36;17.00;99.90
23267;DHT22;11802;53.160;8.214;2023-04-06T13:06:02;17.00;99.90
23267;DHT22;11802;53.160;8.214;2023-04-06T13:08:28;16.70;96.40
23267;DHT22;11802;53.160;8.214;2023-04-06T13:10:54;16.50;97.70
23267;DHT22;11802;53.160;8.214;2023-04-06T13:13:24;16.60;98.40
23267;DHT22;11802;53.160;8.214;2023-04-06T13:15:54;16.50;98.10
23267;DHT22;11802;53.160;8.214;2023-04-06T13:18:21;16.50;98.80
23267;DHT22;11802;53.160;8.214;2023-04-06T13:20:48;16.20;98.30
23267;DHT22;11802;53.160;8.214;2023-04-06T13:23:14;16.60;99.90
23267;DHT22;11802;53.160;8.214;2023-04-06T13:25:40;16.90;98.60
23267;DHT22;11802;53.160;8.214;2023-04-06T13:28:05;16.80;96.60
23267;DHT22;11802;53.160;8.214;2023-04-06T13:30:31;16.70;96.30
23267;DHT22;11802;53.160;8.214;2023-04-06T13:32:56;16.40;99.90
23267;DHT22;11802;53.160;8.214;2023-04-06T13:35:22;16.30;99.90
23267;DHT22;11802;53.160;8.214;2023-04-06T13:37:47;16.30;99.90
23267;DHT22;11802;53.160;8.214;2023-04-06T13:40:14;16.30;99.00
23267;DHT22;11802;53.160;8.214;2023-04-06T13:42:39;16.20;99.90
23267;DHT22;11802;53.160;8.214;2023-04-06T13:45:06;16.10;99.90
23267;DHT22;11802;53.160;8.214;2023-04-06T13:47:32;16.00;99.90
23267;DHT22;11802;53.160;8.214;2023-04-06T13:49:58;16.00;99.90
23267;DHT22;11802;53.160;8.214;2023-04-06T13:52:23;15.60;99.90
23267;DHT22;11802;53.160;8.214;2023-04-06T13:54:49;15.70;99.90
23267;DHT22;11802;53.160;8.214;2023-04-06T13:57:15;15.50;99.90
23267;DHT22;11802;53.160;8.214;2023-04-06T13:59:41;15.50;99.90
23267;DHT22;11802;53.160;8.214;2023-04-06T14:02:08;15.50;99.90
23267;DHT22;11802;53.160;8.214;2023-04-06T14:04:34;15.70;99.90
23267;DHT22;11802;53.160;8.214;2023-04-06T14:07:01;15.60;99.90
23267;DHT22;11802;53.160;8.214;2023-04-06T14:09:27;15.90;99.90
23267;DHT22;11802;53.160;8.214;2023-04-06T14:11:53;16.10;99.90
23267;DHT22;11802;53.160;8.214;2023-04-06T14:14:19;16.00;99.90
23267;DHT22;11802;53.160;8.214;2023-04-06T14:16:44;16.10;99.90
23267;DHT22;11802;53.160;8.214;2023-04-06T14:19:11;16.20;99.90
23267;DHT22;11802;53.160;8.214;2023-04-06T14:21:41;16.30;99.90
23267;DHT22;11802;53.160;8.214;2023-04-06T14:24:07;16.30;99.90
23267;DHT22;11802;53.160;8.214;2023-04-06T14:26:36;16.20;99.80
23267;DHT22;11802;53.160;8.214;2023-04-06T14:29:03;16.10;99.90
23267;DHT22;11802;53.160;8.214;2023-04-06T14:31:29;16.00;99.90
23267;DHT22;11802;53.160;8.214;2023-04-06T14:33:56;16.20;99.90
23267;DHT22;11802;53.160;8.214;2023-04-06T14:36:21;16.30;99.90
23267;DHT22;11802;53.160;8.214;2023-04-06T14:38:47;16.20;99.90
23267;DHT22;11802;53.160;8.214;2023-04-06T14:41:17;16.10;99.90
23267;DHT22;11802;53.160;8.214;2023-04-06T14:43:43;16.00;99.90
23267;DHT22;11802;53.160;8.214;2023-04-06T14:46:09;16.00;99.90
23267;DHT22;11802;53.160;8.214;2023-04-06T14:48:35;16.20;99.90
23267;DHT22;11802;53.160;8.214;2023-04-06T14:51:01;16.30;99.90
23267;DHT22;11802;53.160;8.214;2023-04-06T14:53:27;16.40;99.90
23267;DHT22;11802;53.160;8.214;2023-04-06T14:55:53;16.30;99.90
23267;DHT22;11802;53.160;8.214;2023-04-06T14:58:19;16.30;99.20
23267;DHT22;11802;53.160;8.214;2023-04-06T15:00:45;16.00;99.90
23267;DHT22;11802;53.160;8.214;2023-04-06T15:03:11;15.80;99.90
23267;DHT22;11802;53.160;8.214;2023-04-06T15:05:36;15.70;99.90
23267;DHT22;11802;53.160;8.214;2023-04-06T15:08:02;15.90;99.90
23267;DHT22;11802;53.160;8.214;2023-04-06T15:10:31;16.10;99.90
23267;DHT22;11802;53.160;8.214;2023-04-06T15:12:56;16.10;99.90
23267;DHT22;11802;53.160;8.214;2023-04-06T15:15:22;16.10;99.90
23267;DHT22;11802;53.160;8.214;2023-04-06T15:17:47;16.00;99.90
23267;DHT22;11802;53.160;8.214;2023-04-06T15:20:13;15.90;96.40
23267;DHT22;11802;53.160;8.214;2023-04-06T15:22:39;15.80;93.60
23267;DHT22;11802;53.160;8.214;2023-04-06T15:25:04;15.60;91.50
23267;DHT22;11802;53.160;8.214;2023-04-06T15:27:30;15.50;94.70
23267;DHT22;11802;53.160;8.214;2023-04-06T15:29:56;15.50;94.70
23267;DHT22;11802;53.160;8.214;2023-04-06T15:32:24;15.50;95.10
23267;DHT22;11802;53.160;8.214;2023-04-06T15:34:50;15.60;96.90
23267;DHT22;11802;53.160;8.214;2023-04-06T15:37:15;15.50;95.90